sensor_id;sensor_type;location;lat;lon;timestamp;pressure;altitude;pressure_sealevel;temperature;humidity
38612;BME280;24368;52.156;20.788;2022-11-18T00:03:06;99502.17;;;-1.13;99.83
38612;BME280;24368;52.156;20.788;2022-11-18T00:08:09;99503.74;;;-1.06;99.23
38612;BME280;24368;52.156;20.788;2022-11-18T00:13:11;99499.25;;;-1.06;98.85
38612;BME280;24368;52.156;20.788;2022-11-18T00:18:32;99496.02;;;-1.07;99.42
38612;BME280;24368;52.156;20.788;2022-11-18T00:23:34;99487.84;;;-1.14;98.65
38612;BME280;24368;52.156;20.788;2022-11-18T00:28:36;99485.08;;;-1.16;98.63
38612;BME280;24368;52.156;20.788;2022-11-18T00:33:39;99478.34;;;-1.19;98.36
38612;BME280;24368;52.156;20.788;2022-11-18T00:38:41;99480.04;;;-1.24;97.99
38612;BME280;24368;52.156;20.788;2022-11-18T00:43:43;99484.86;;;-1.27;97.51
38612;BME280;24368;52.156;20.788;2022-11-18T00:48:45;99481.33;;;-1.26;97.90
38612;BME280;24368;52.156;20.788;2022-11-18T00:53:47;99483.65;;;-1.24;97.90
38612;BME280;24368;52.156;20.788;2022-11-18T00:58:48;99488.86;;;-1.14;97.94
38612;BME280;24368;52.156;20.788;2022-11-18T01:03:51;99486.73;;;-1.07;97.13
38612;BME280;24368;52.156;20.788;2022-11-18T01:08:52;99488.42;;;-1.04;96.13
38612;BME280;24368;52.156;20.788;2022-11-18T01:13:54;99480.92;;;-1.06;95.79
38612;BME280;24368;52.156;20.788;2022-11-18T01:18:56;99480.45;;;-1.14;94.39
38612;BME280;24368;52.156;20.788;2022-11-18T01:23:58;99474.64;;;-1.21;93.99
38612;BME280;24368;52.156;20.788;2022-11-18T01:29:00;99470.45;;;-1.28;93.73
38612;BME280;24368;52.156;20.788;2022-11-18T01:34:02;99472.38;;;-1.29;94.01
38612;BME280;24368;52.156;20.788;2022-11-18T01:39:04;99472.46;;;-1.32;93.49
38612;BME280;24368;52.156;20.788;2022-11-18T01:49:46;99468.41;;;-1.31;93.93
38612;BME280;24368;52.156;20.788;2022-11-18T01:54:53;99462.42;;;-1.38;93.58
38612;BME280;24368;52.156;20.788;2022-11-18T01:59:58;99458.69;;;-1.41;93.81
38612;BME280;24368;52.156;20.788;2022-11-18T02:05:03;99454.30;;;-1.27;94.00
38612;BME280;24368;52.156;20.788;2022-11-18T02:10:06;99452.27;;;-1.17;93.26
38612;BME280;24368;52.156;20.788;2022-11-18T02:15:09;99446.90;;;-1.16;93.25
38612;BME280;24368;52.156;20.788;2022-11-18T02:20:41;99444.46;;;-1.22;93.05
38612;BME280;24368;52.156;20.788;2022-11-18T02:31:22;99451.81;;;-1.23;94.34
38612;BME280;24368;52.156;20.788;2022-11-18T02:36:50;99450.30;;;-1.27;94.49
38612;BME280;24368;52.156;20.788;2022-11-18T02:41:56;99445.18;;;-1.28;95.26
38612;BME280;24368;52.156;20.788;2022-11-18T02:47:05;99440.95;;;-1.29;96.57
38612;BME280;24368;52.156;20.788;2022-11-18T02:52:11;99441.58;;;-1.36;96.84
38612;BME280;24368;52.156;20.788;2022-11-18T02:57:14;99445.77;;;-1.34;97.55
38612;BME280;24368;52.156;20.788;2022-11-18T03:02:18;99441.16;;;-1.40;97.32
38612;BME280;24368;52.156;20.788;2022-11-18T03:07:30;99438.60;;;-1.40;97.98
38612;BME280;24368;52.156;20.788;2022-11-18T03:12:53;99431.16;;;-1.35;98.09
38612;BME280;24368;52.156;20.788;2022-11-18T03:23:39;99416.55;;;-1.20;98.44
38612;BME280;24368;52.156;20.788;2022-11-18T03:29:07;99415.35;;;-1.20;99.19
38612;BME280;24368;52.156;20.788;2022-11-18T03:34:17;99403.83;;;-1.27;99.07
38612;BME280;24368;52.156;20.788;2022-11-18T03:39:21;99401.77;;;-1.32;99.88
38612;BME280;24368;52.156;20.788;2022-11-18T03:44:31;99404.98;;;-1.34;99.92
38612;BME280;24368;52.156;20.788;2022-11-18T03:49:49;99407.77;;;-1.39;99.96
38612;BME280;24368;52.156;20.788;2022-11-18T03:54:56;99410.78;;;-1.40;100.00
38612;BME280;24368;52.156;20.788;2022-11-18T04:00:06;99409.82;;;-1.44;100.00
38612;BME280;24368;52.156;20.788;2022-11-18T04:05:12;99413.66;;;-1.37;100.00
38612;BME280;24368;52.156;20.788;2022-11-18T04:10:19;99414.39;;;-1.29;100.00
38612;BME280;24368;52.156;20.788;2022-11-18T04:15:24;99412.82;;;-1.29;100.00
38612;BME280;24368;52.156;20.788;2022-11-18T04:20:27;99413.08;;;-1.36;100.00
38612;BME280;24368;52.156;20.788;2022-11-18T04:25:29;99409.23;;;-1.41;100.00
38612;BME280;24368;52.156;20.788;2022-11-18T04:30:31;99414.59;;;-1.43;100.00
38612;BME280;24368;52.156;20.788;2022-11-18T04:35:33;99415.16;;;-1.51;100.00
38612;BME280;24368;52.156;20.788;2022-11-18T04:40:36;99413.00;;;-1.53;100.00
38612;BME280;24368;52.156;20.788;2022-11-18T04:45:37;99409.49;;;-1.47;100.00
38612;BME280;24368;52.156;20.788;2022-11-18T04:50:39;99410.64;;;-1.41;100.00
38612;BME280;24368;52.156;20.788;2022-11-18T04:55:41;99409.07;;;-1.43;100.00
38612;BME280;24368;52.156;20.788;2022-11-18T05:00:42;99408.86;;;-1.45;100.00
38612;BME280;24368;52.156;20.788;2022-11-18T05:05:44;99409.70;;;-1.45;100.00
38612;BME280;24368;52.156;20.788;2022-11-18T05:10:46;99403.20;;;-1.56;100.00
38612;BME280;24368;52.156;20.788;2022-11-18T05:15:48;99405.16;;;-1.62;100.00
38612;BME280;24368;52.156;20.788;2022-11-18T05:20:50;99410.05;;;-1.74;100.00
38612;BME280;24368;52.156;20.788;2022-11-18T05:25:52;99405.67;;;-1.73;100.00
38612;BME280;24368;52.156;20.788;2022-11-18T05:30:53;99404.30;;;-1.62;100.00
38612;BME280;24368;52.156;20.788;2022-11-18T05:35:55;99400.30;;;-1.59;100.00
38612;BME280;24368;52.156;20.788;2022-11-18T05:40:57;99392.02;;;-1.60;100.00
38612;BME280;24368;52.156;20.788;2022-11-18T05:45:59;99394.25;;;-1.62;100.00
38612;BME280;24368;52.156;20.788;2022-11-18T05:51:02;99392.71;;;-1.65;100.00
38612;BME280;24368;52.156;20.788;2022-11-18T06:07:07;99396.25;;;-1.61;100.00
38612;BME280;24368;52.156;20.788;2022-11-18T06:12:17;99394.34;;;-1.61;100.00
38612;BME280;24368;52.156;20.788;2022-11-18T06:17:25;99397.48;;;-1.69;100.00
38612;BME280;24368;52.156;20.788;2022-11-18T06:22:29;99391.36;;;-1.70;100.00
38612;BME280;24368;52.156;20.788;2022-11-18T06:27:31;99394.92;;;-1.75;100.00
38612;BME280;24368;52.156;20.788;2022-11-18T06:32:34;99396.00;;;-1.73;100.00
38612;BME280;24368;52.156;20.788;2022-11-18T06:37:36;99401.36;;;-1.62;100.00
38612;BME280;24368;52.156;20.788;2022-11-18T06:42:39;99399.45;;;-1.59;100.00
38612;BME280;24368;52.156;20.788;2022-11-18T06:47:59;99405.34;;;-1.63;100.00
38612;BME280;24368;52.156;20.788;2022-11-18T06:53:02;99412.88;;;-1.69;100.00
38612;BME280;24368;52.156;20.788;2022-11-18T06:58:04;99416.61;;;-1.71;100.00
38612;BME280;24368;52.156;20.788;2022-11-18T07:03:05;99417.27;;;-1.63;99.89
38612;BME280;24368;52.156;20.788;2022-11-18T07:08:07;99416.40;;;-1.57;98.90
38612;BME280;24368;52.156;20.788;2022-11-18T07:13:09;99418.61;;;-1.59;98.60
38612;BME280;24368;52.156;20.788;2022-11-18T07:18:11;99419.52;;;-1.65;99.01
38612;BME280;24368;52.156;20.788;2022-11-18T07:23:13;99422.63;;;-1.63;99.72
38612;BME280;24368;52.156;20.788;2022-11-18T07:28:15;99429.38;;;-1.58;100.00
38612;BME280;24368;52.156;20.788;2022-11-18T07:33:16;99426.18;;;-1.54;100.00
38612;BME280;24368;52.156;20.788;2022-11-18T07:38:18;99433.64;;;-1.57;100.00
38612;BME280;24368;52.156;20.788;2022-11-18T07:43:20;99440.63;;;-1.53;100.00
38612;BME280;24368;52.156;20.788;2022-11-18T07:48:22;99447.72;;;-1.48;100.00
38612;BME280;24368;52.156;20.788;2022-11-18T07:53:24;99450.23;;;-1.44;100.00
38612;BME280;24368;52.156;20.788;2022-11-18T07:58:26;99446.56;;;-1.41;99.17
38612;BME280;24368;52.156;20.788;2022-11-18T08:03:30;99452.61;;;-1.46;98.86
38612;BME280;24368;52.156;20.788;2022-11-18T08:08:33;99455.46;;;-1.50;99.32
38612;BME280;24368;52.156;20.788;2022-11-18T08:13:36;99458.20;;;-1.52;99.61
38612;BME280;24368;52.156;20.788;2022-11-18T08:18:38;99464.71;;;-1.49;99.74
38612;BME280;24368;52.156;20.788;2022-11-18T08:23:40;99469.30;;;-1.45;100.00
38612;BME280;24368;52.156;20.788;2022-11-18T08:28:43;99471.48;;;-1.41;99.42
38612;BME280;24368;52.156;20.788;2022-11-18T08:33:46;99469.64;;;-1.39;98.37
38612;BME280;24368;52.156;20.788;2022-11-18T08:38:48;99470.67;;;-1.32;97.97
38612;BME280;24368;52.156;20.788;2022-11-18T08:43:50;99471.78;;;-1.28;97.99
38612;BME280;24368;52.156;20.788;2022-11-18T08:48:52;99476.79;;;-1.30;98.57
38612;BME280;24368;52.156;20.788;2022-11-18T08:53:54;99480.16;;;-1.34;97.65
38612;BME280;24368;52.156;20.788;2022-11-18T08:58:56;99481.74;;;-1.32;97.80
38612;BME280;24368;52.156;20.788;2022-11-18T09:03:58;99488.34;;;-1.24;97.76
38612;BME280;24368;52.156;20.788;2022-11-18T09:09:00;99487.88;;;-1.17;98.34
38612;BME280;24368;52.156;20.788;2022-11-18T09:14:02;99484.13;;;-1.10;98.31
38612;BME280;24368;52.156;20.788;2022-11-18T09:19:04;99481.33;;;-1.15;98.29
38612;BME280;24368;52.156;20.788;2022-11-18T09:24:06;99483.11;;;-1.15;98.65
38612;BME280;24368;52.156;20.788;2022-11-18T09:29:08;99476.03;;;-1.16;98.59
38612;BME280;24368;52.156;20.788;2022-11-18T09:34:12;99474.25;;;-1.15;98.90
38612;BME280;24368;52.156;20.788;2022-11-18T09:39:14;99472.01;;;-1.07;98.29
38612;BME280;24368;52.156;20.788;2022-11-18T09:44:34;99469.98;;;-0.90;97.66
38612;BME280;24368;52.156;20.788;2022-11-18T09:49:42;99468.43;;;-0.77;95.97
38612;BME280;24368;52.156;20.788;2022-11-18T09:54:45;99466.69;;;-0.71;95.16
38612;BME280;24368;52.156;20.788;2022-11-18T09:59:48;99461.75;;;-0.75;94.35
38612;BME280;24368;52.156;20.788;2022-11-18T10:04:50;99464.55;;;-0.86;93.95
38612;BME280;24368;52.156;20.788;2022-11-18T10:09:53;99466.40;;;-0.88;94.07
38612;BME280;24368;52.156;20.788;2022-11-18T10:20:27;99478.21;;;-0.86;93.16
38612;BME280;24368;52.156;20.788;2022-11-18T10:25:32;99479.02;;;-0.85;92.65
38612;BME280;24368;52.156;20.788;2022-11-18T10:30:34;99483.02;;;-0.91;92.01
38612;BME280;24368;52.156;20.788;2022-11-18T10:35:37;99483.33;;;-0.78;93.00
38612;BME280;24368;52.156;20.788;2022-11-18T10:40:44;99483.73;;;-0.76;91.97
38612;BME280;24368;52.156;20.788;2022-11-18T10:45:47;99491.45;;;-0.85;91.52
38612;BME280;24368;52.156;20.788;2022-11-18T10:50:50;99491.23;;;-0.87;90.66
38612;BME280;24368;52.156;20.788;2022-11-18T10:56:01;99497.05;;;-0.86;90.18
38612;BME280;24368;52.156;20.788;2022-11-18T11:01:19;99504.75;;;-0.74;89.42
38612;BME280;24368;52.156;20.788;2022-11-18T11:11:38;99500.92;;;0.55;85.92
38612;BME280;24368;52.156;20.788;2022-11-18T11:21:58;99492.80;;;3.72;66.65
38612;BME280;24368;52.156;20.788;2022-11-18T11:27:32;99493.26;;;1.62;75.69
38612;BME280;24368;52.156;20.788;2022-11-18T11:38:00;99495.58;;;0.52;80.69
38612;BME280;24368;52.156;20.788;2022-11-18T11:49:12;99504.65;;;-0.12;82.08
38612;BME280;24368;52.156;20.788;2022-11-18T11:54:13;99511.33;;;0.32;80.60
38612;BME280;24368;52.156;20.788;2022-11-18T11:59:34;99510.90;;;1.60;72.97
38612;BME280;24368;52.156;20.788;2022-11-18T12:04:51;99514.34;;;0.61;76.09
38612;BME280;24368;52.156;20.788;2022-11-18T12:20:44;99513.84;;;-0.30;81.82
38612;BME280;24368;52.156;20.788;2022-11-18T12:25:51;99517.56;;;-0.39;82.74
38612;BME280;24368;52.156;20.788;2022-11-18T12:47:09;99526.77;;;-0.57;83.87
38612;BME280;24368;52.156;20.788;2022-11-18T12:57:32;99530.34;;;-0.56;81.63
38612;BME280;24368;52.156;20.788;2022-11-18T13:02:35;99527.09;;;-0.59;81.30
38612;BME280;24368;52.156;20.788;2022-11-18T13:08:09;99521.00;;;-0.61;81.26
38612;BME280;24368;52.156;20.788;2022-11-18T13:13:31;99528.11;;;-0.62;81.49
38612;BME280;24368;52.156;20.788;2022-11-18T13:18:46;99529.19;;;-0.62;80.47
38612;BME280;24368;52.156;20.788;2022-11-18T13:23:59;99525.73;;;-0.67;80.42
38612;BME280;24368;52.156;20.788;2022-11-18T13:39:29;99526.81;;;-0.76;84.71
38612;BME280;24368;52.156;20.788;2022-11-18T13:44:33;99527.17;;;-0.81;84.65
38612;BME280;24368;52.156;20.788;2022-11-18T13:49:46;99529.94;;;-0.76;84.47
38612;BME280;24368;52.156;20.788;2022-11-18T13:54:52;99530.93;;;-0.67;84.71
38612;BME280;24368;52.156;20.788;2022-11-18T13:59:59;99538.10;;;-0.68;84.47
38612;BME280;24368;52.156;20.788;2022-11-18T14:05:02;99541.87;;;-0.73;84.68
38612;BME280;24368;52.156;20.788;2022-11-18T14:10:07;99538.44;;;-0.77;86.34
38612;BME280;24368;52.156;20.788;2022-11-18T14:15:20;99545.77;;;-0.83;87.82
38612;BME280;24368;52.156;20.788;2022-11-18T14:20:24;99551.79;;;-0.87;88.56
38612;BME280;24368;52.156;20.788;2022-11-18T14:25:29;99557.30;;;-0.95;89.94
38612;BME280;24368;52.156;20.788;2022-11-18T14:30:34;99559.95;;;-0.91;90.10
38612;BME280;24368;52.156;20.788;2022-11-18T14:35:49;99566.56;;;-0.83;90.17
38612;BME280;24368;52.156;20.788;2022-11-18T14:40:54;99565.70;;;-0.81;90.41
38612;BME280;24368;52.156;20.788;2022-11-18T14:45:59;99571.38;;;-0.88;90.95
38612;BME280;24368;52.156;20.788;2022-11-18T14:51:02;99574.06;;;-0.92;92.19
38612;BME280;24368;52.156;20.788;2022-11-18T14:56:12;99581.19;;;-0.95;93.78
38612;BME280;24368;52.156;20.788;2022-11-18T15:01:16;99581.61;;;-0.96;94.55
38612;BME280;24368;52.156;20.788;2022-11-18T15:06:19;99588.20;;;-1.08;94.57
38612;BME280;24368;52.156;20.788;2022-11-18T15:11:21;99587.92;;;-1.09;94.94
38612;BME280;24368;52.156;20.788;2022-11-18T15:16:26;99593.29;;;-1.01;94.81
38612;BME280;24368;52.156;20.788;2022-11-18T15:21:29;99599.13;;;-0.97;94.73
38612;BME280;24368;52.156;20.788;2022-11-18T15:26:40;99607.42;;;-1.00;94.45
38612;BME280;24368;52.156;20.788;2022-11-18T15:31:46;99607.23;;;-1.08;95.18
38612;BME280;24368;52.156;20.788;2022-11-18T15:36:48;99611.31;;;-1.04;95.74
38612;BME280;24368;52.156;20.788;2022-11-18T15:41:50;99611.52;;;-1.07;96.39
38612;BME280;24368;52.156;20.788;2022-11-18T15:46:52;99614.77;;;-1.15;97.91
38612;BME280;24368;52.156;20.788;2022-11-18T15:51:54;99625.89;;;-1.10;98.30
38612;BME280;24368;52.156;20.788;2022-11-18T15:56:56;99633.17;;;-1.10;99.10
38612;BME280;24368;52.156;20.788;2022-11-18T16:01:58;99639.25;;;-1.13;99.73
38612;BME280;24368;52.156;20.788;2022-11-18T16:07:00;99647.13;;;-1.20;99.96
38612;BME280;24368;52.156;20.788;2022-11-18T16:12:03;99656.63;;;-1.21;99.67
38612;BME280;24368;52.156;20.788;2022-11-18T16:17:24;99665.75;;;-1.23;99.36
38612;BME280;24368;52.156;20.788;2022-11-18T16:22:26;99672.70;;;-1.26;98.21
38612;BME280;24368;52.156;20.788;2022-11-18T16:27:27;99677.75;;;-1.32;98.47
38612;BME280;24368;52.156;20.788;2022-11-18T16:32:30;99680.45;;;-1.34;99.23
38612;BME280;24368;52.156;20.788;2022-11-18T16:37:32;99681.21;;;-1.38;99.03
38612;BME280;24368;52.156;20.788;2022-11-18T16:42:34;99683.92;;;-1.51;98.02
38612;BME280;24368;52.156;20.788;2022-11-18T16:47:37;99694.09;;;-1.48;97.61
38612;BME280;24368;52.156;20.788;2022-11-18T16:52:39;99697.77;;;-1.52;96.78
38612;BME280;24368;52.156;20.788;2022-11-18T16:57:42;99702.46;;;-1.60;97.28
38612;BME280;24368;52.156;20.788;2022-11-18T17:02:44;99704.66;;;-1.74;97.92
38612;BME280;24368;52.156;20.788;2022-11-18T17:07:46;99706.80;;;-1.69;98.90
38612;BME280;24368;52.156;20.788;2022-11-18T17:12:48;99708.84;;;-1.66;98.76
38612;BME280;24368;52.156;20.788;2022-11-18T17:17:50;99706.63;;;-1.75;98.82
38612;BME280;24368;52.156;20.788;2022-11-18T17:22:52;99700.55;;;-1.84;98.75
38612;BME280;24368;52.156;20.788;2022-11-18T17:27:54;99701.27;;;-1.90;98.71
38612;BME280;24368;52.156;20.788;2022-11-18T17:32:56;99708.48;;;-1.80;98.15
38612;BME280;24368;52.156;20.788;2022-11-18T17:37:58;99716.97;;;-1.84;98.97
38612;BME280;24368;52.156;20.788;2022-11-18T17:43:00;99719.65;;;-1.88;98.74
38612;BME280;24368;52.156;20.788;2022-11-18T17:48:02;99718.63;;;-1.91;98.02
38612;BME280;24368;52.156;20.788;2022-11-18T17:53:04;99721.31;;;-1.93;97.11
38612;BME280;24368;52.156;20.788;2022-11-18T17:58:09;99718.44;;;-1.82;96.04
38612;BME280;24368;52.156;20.788;2022-11-18T18:03:14;99718.42;;;-1.82;95.07
38612;BME280;24368;52.156;20.788;2022-11-18T18:08:16;99720.14;;;-1.79;95.51
38612;BME280;24368;52.156;20.788;2022-11-18T18:13:18;99724.42;;;-1.93;94.99
38612;BME280;24368;52.156;20.788;2022-11-18T18:18:39;99736.02;;;-1.99;95.31
38612;BME280;24368;52.156;20.788;2022-11-18T18:23:42;99739.24;;;-1.98;96.00
38612;BME280;24368;52.156;20.788;2022-11-18T18:28:44;99737.39;;;-1.99;96.11
38612;BME280;24368;52.156;20.788;2022-11-18T18:33:46;99741.91;;;-1.94;95.81
38612;BME280;24368;52.156;20.788;2022-11-18T18:38:48;99746.66;;;-1.84;95.25
38612;BME280;24368;52.156;20.788;2022-11-18T18:43:50;99754.29;;;-1.79;95.77
38612;BME280;24368;52.156;20.788;2022-11-18T18:48:58;99754.73;;;-1.86;95.19
38612;BME280;24368;52.156;20.788;2022-11-18T18:54:00;99755.29;;;-1.92;94.83
38612;BME280;24368;52.156;20.788;2022-11-18T18:59:02;99757.48;;;-1.97;94.39
38612;BME280;24368;52.156;20.788;2022-11-18T19:04:09;99763.70;;;-1.97;93.96
38612;BME280;24368;52.156;20.788;2022-11-18T19:09:24;99760.70;;;-1.96;93.60
38612;BME280;24368;52.156;20.788;2022-11-18T19:14:26;99761.59;;;-1.91;92.55
38612;BME280;24368;52.156;20.788;2022-11-18T19:19:28;99763.90;;;-1.86;91.81
38612;BME280;24368;52.156;20.788;2022-11-18T19:24:49;99762.02;;;-1.92;91.58
38612;BME280;24368;52.156;20.788;2022-11-18T19:29:51;99761.79;;;-1.97;91.31
38612;BME280;24368;52.156;20.788;2022-11-18T19:34:53;99767.38;;;-2.01;91.76
38612;BME280;24368;52.156;20.788;2022-11-18T19:39:55;99778.67;;;-2.05;92.15
38612;BME280;24368;52.156;20.788;2022-11-18T19:44:59;99781.73;;;-2.08;91.98
38612;BME280;24368;52.156;20.788;2022-11-18T19:50:01;99780.71;;;-2.11;91.58
38612;BME280;24368;52.156;20.788;2022-11-18T19:55:04;99784.27;;;-2.01;91.20
38612;BME280;24368;52.156;20.788;2022-11-18T20:00:08;99783.84;;;-1.96;90.13
38612;BME280;24368;52.156;20.788;2022-11-18T20:05:11;99785.27;;;-2.03;89.49
38612;BME280;24368;52.156;20.788;2022-11-18T20:10:32;99791.76;;;-2.08;89.04
38612;BME280;24368;52.156;20.788;2022-11-18T20:15:34;99793.20;;;-2.12;89.16
38612;BME280;24368;52.156;20.788;2022-11-18T20:20:37;99793.52;;;-2.11;89.71
38612;BME280;24368;52.156;20.788;2022-11-18T20:25:38;99794.64;;;-2.10;89.75
38612;BME280;24368;52.156;20.788;2022-11-18T20:30:40;99795.85;;;-2.19;89.20
38612;BME280;24368;52.156;20.788;2022-11-18T20:35:43;99798.45;;;-2.29;89.25
38612;BME280;24368;52.156;20.788;2022-11-18T20:40:45;99805.70;;;-2.29;88.96
38612;BME280;24368;52.156;20.788;2022-11-18T20:45:51;99810.73;;;-2.20;88.65
38612;BME280;24368;52.156;20.788;2022-11-18T20:50:53;99811.91;;;-2.16;87.58
38612;BME280;24368;52.156;20.788;2022-11-18T20:55:55;99811.96;;;-2.24;86.51
38612;BME280;24368;52.156;20.788;2022-11-18T21:01:15;99814.48;;;-2.25;87.23
38612;BME280;24368;52.156;20.788;2022-11-18T21:06:18;99824.29;;;-2.25;87.27
38612;BME280;24368;52.156;20.788;2022-11-18T21:11:21;99830.25;;;-2.27;87.50
38612;BME280;24368;52.156;20.788;2022-11-18T21:16:23;99824.40;;;-2.30;87.16
38612;BME280;24368;52.156;20.788;2022-11-18T21:21:25;99830.66;;;-2.31;87.89
38612;BME280;24368;52.156;20.788;2022-11-18T21:26:47;99837.04;;;-2.34;87.43
38612;BME280;24368;52.156;20.788;2022-11-18T21:31:51;99835.58;;;-2.39;86.95
38612;BME280;24368;52.156;20.788;2022-11-18T21:36:53;99844.33;;;-2.41;87.05
38612;BME280;24368;52.156;20.788;2022-11-18T21:41:55;99843.15;;;-2.41;87.18
38612;BME280;24368;52.156;20.788;2022-11-18T21:46:57;99845.69;;;-2.47;86.02
38612;BME280;24368;52.156;20.788;2022-11-18T21:51:59;99850.35;;;-2.47;85.67
38612;BME280;24368;52.156;20.788;2022-11-18T21:57:03;99853.09;;;-2.47;86.05
38612;BME280;24368;52.156;20.788;2022-11-18T22:02:05;99855.00;;;-2.47;85.43
38612;BME280;24368;52.156;20.788;2022-11-18T22:07:07;99850.77;;;-2.36;85.66
38612;BME280;24368;52.156;20.788;2022-11-18T22:12:08;99847.22;;;-2.31;86.15
38612;BME280;24368;52.156;20.788;2022-11-18T22:17:10;99850.67;;;-2.37;87.26
38612;BME280;24368;52.156;20.788;2022-11-18T22:22:12;99860.15;;;-2.46;87.79
38612;BME280;24368;52.156;20.788;2022-11-18T22:27:14;99864.48;;;-2.50;88.59
38612;BME280;24368;52.156;20.788;2022-11-18T22:32:18;99871.88;;;-2.59;89.38
38612;BME280;24368;52.156;20.788;2022-11-18T22:37:20;99871.08;;;-2.63;90.41
38612;BME280;24368;52.156;20.788;2022-11-18T22:42:21;99871.61;;;-2.54;90.78
38612;BME280;24368;52.156;20.788;2022-11-18T22:47:42;99878.77;;;-2.52;90.23
38612;BME280;24368;52.156;20.788;2022-11-18T22:52:44;99882.52;;;-2.52;89.85
38612;BME280;24368;52.156;20.788;2022-11-18T22:57:46;99881.25;;;-2.54;89.66
38612;BME280;24368;52.156;20.788;2022-11-18T23:02:48;99876.05;;;-2.63;90.07
38612;BME280;24368;52.156;20.788;2022-11-18T23:07:50;99872.59;;;-2.66;90.52
38612;BME280;24368;52.156;20.788;2022-11-18T23:12:52;99874.61;;;-2.68;91.24
38612;BME280;24368;52.156;20.788;2022-11-18T23:18:12;99870.59;;;-2.70;91.17
38612;BME280;24368;52.156;20.788;2022-11-18T23:23:14;99874.90;;;-2.67;91.78
38612;BME280;24368;52.156;20.788;2022-11-18T23:28:16;99875.23;;;-2.66;91.63
38612;BME280;24368;52.156;20.788;2022-11-18T23:33:18;99872.73;;;-2.78;91.54
38612;BME280;24368;52.156;20.788;2022-11-18T23:38:20;99872.05;;;-2.72;92.31
38612;BME280;24368;52.156;20.788;2022-11-18T23:43:23;99871.55;;;-2.62;92.01
38612;BME280;24368;52.156;20.788;2022-11-18T23:48:29;99868.64;;;-2.59;91.70
38612;BME280;24368;52.156;20.788;2022-11-18T23:53:33;99869.61;;;-2.65;91.71
38612;BME280;24368;52.156;20.788;2022-11-18T23:58:39;99867.87;;;-2.64;92.47
